sensor_id;sensor_type;location;lat;lon;timestamp;temperature;humidity
46754;DHT22;32500;50.620;3.400;2024-02-14T00:02:10;15.70;71.50
46754;DHT22;32500;50.620;3.400;2024-02-14T00:04:36;15.60;71.60
46754;DHT22;32500;50.620;3.400;2024-02-14T00:07:01;15.70;71.60
46754;DHT22;32500;50.620;3.400;2024-02-14T00:09:27;15.60;71.50
46754;DHT22;32500;50.620;3.400;2024-02-14T00:11:52;15.60;71.50
46754;DHT22;32500;50.620;3.400;2024-02-14T00:14:18;15.60;71.40
46754;DHT22;32500;50.620;3.400;2024-02-14T00:16:47;15.60;71.50
46754;DHT22;32500;50.620;3.400;2024-02-14T00:19:13;15.60;71.30
46754;DHT22;32500;50.620;3.400;2024-02-14T00:21:39;15.60;71.50
46754;DHT22;32500;50.620;3.400;2024-02-14T00:24:05;15.60;71.40
46754;DHT22;32500;50.620;3.400;2024-02-14T00:26:31;15.60;71.50
46754;DHT22;32500;50.620;3.400;2024-02-14T00:28:57;15.60;71.50
46754;DHT22;32500;50.620;3.400;2024-02-14T00:31:22;15.60;71.60
46754;DHT22;32500;50.620;3.400;2024-02-14T00:33:48;15.60;71.60
46754;DHT22;32500;50.620;3.400;2024-02-14T00:36:14;15.60;71.60
46754;DHT22;32500;50.620;3.400;2024-02-14T00:38:40;15.60;71.60
46754;DHT22;32500;50.620;3.400;2024-02-14T00:41:06;15.60;71.50
46754;DHT22;32500;50.620;3.400;2024-02-14T00:43:31;15.60;71.50
46754;DHT22;32500;50.620;3.400;2024-02-14T00:45:57;15.60;71.50
46754;DHT22;32500;50.620;3.400;2024-02-14T00:48:23;15.50;71.50
46754;DHT22;32500;50.620;3.400;2024-02-14T00:50:49;15.50;71.50
46754;DHT22;32500;50.620;3.400;2024-02-14T00:53:15;15.50;71.50
46754;DHT22;32500;50.620;3.400;2024-02-14T00:55:41;15.50;71.50
46754;DHT22;32500;50.620;3.400;2024-02-14T00:58:06;15.50;71.60
46754;DHT22;32500;50.620;3.400;2024-02-14T01:00:32;15.50;71.50
46754;DHT22;32500;50.620;3.400;2024-02-14T01:02:58;15.50;71.50
46754;DHT22;32500;50.620;3.400;2024-02-14T01:05:24;15.50;71.50
46754;DHT22;32500;50.620;3.400;2024-02-14T01:07:50;15.50;71.50
46754;DHT22;32500;50.620;3.400;2024-02-14T01:10:16;15.50;71.50
46754;DHT22;32500;50.620;3.400;2024-02-14T01:12:43;15.50;71.60
46754;DHT22;32500;50.620;3.400;2024-02-14T01:15:09;15.40;71.60
46754;DHT22;32500;50.620;3.400;2024-02-14T01:17:35;15.40;71.50
46754;DHT22;32500;50.620;3.400;2024-02-14T01:20:02;15.50;71.60
46754;DHT22;32500;50.620;3.400;2024-02-14T01:22:28;15.50;71.40
46754;DHT22;32500;50.620;3.400;2024-02-14T01:24:53;15.50;71.60
46754;DHT22;32500;50.620;3.400;2024-02-14T01:27:20;15.50;71.50
46754;DHT22;32500;50.620;3.400;2024-02-14T01:29:48;15.50;71.50
46754;DHT22;32500;50.620;3.400;2024-02-14T01:32:13;15.50;71.50
46754;DHT22;32500;50.620;3.400;2024-02-14T01:34:39;15.50;71.50
46754;DHT22;32500;50.620;3.400;2024-02-14T01:37:06;15.50;71.40
46754;DHT22;32500;50.620;3.400;2024-02-14T01:39:32;15.50;71.50
46754;DHT22;32500;50.620;3.400;2024-02-14T01:41:58;15.50;71.50
46754;DHT22;32500;50.620;3.400;2024-02-14T01:44:23;15.50;71.40
46754;DHT22;32500;50.620;3.400;2024-02-14T01:46:49;15.50;71.50
46754;DHT22;32500;50.620;3.400;2024-02-14T01:49:16;15.40;71.50
46754;DHT22;32500;50.620;3.400;2024-02-14T01:51:43;15.40;71.50
46754;DHT22;32500;50.620;3.400;2024-02-14T01:54:12;15.40;71.50
46754;DHT22;32500;50.620;3.400;2024-02-14T01:56:38;15.40;71.50
46754;DHT22;32500;50.620;3.400;2024-02-14T01:59:05;15.50;71.60
46754;DHT22;32500;50.620;3.400;2024-02-14T02:01:32;15.50;71.50
46754;DHT22;32500;50.620;3.400;2024-02-14T02:03:59;15.40;71.40
46754;DHT22;32500;50.620;3.400;2024-02-14T02:06:25;15.40;71.50
46754;DHT22;32500;50.620;3.400;2024-02-14T02:08:52;15.40;71.50
46754;DHT22;32500;50.620;3.400;2024-02-14T02:11:18;15.40;71.50
46754;DHT22;32500;50.620;3.400;2024-02-14T02:13:44;15.40;71.40
46754;DHT22;32500;50.620;3.400;2024-02-14T02:16:13;15.40;71.50
46754;DHT22;32500;50.620;3.400;2024-02-14T02:18:40;15.40;71.50
46754;DHT22;32500;50.620;3.400;2024-02-14T02:21:06;15.40;71.50
46754;DHT22;32500;50.620;3.400;2024-02-14T02:23:33;15.40;71.50
46754;DHT22;32500;50.620;3.400;2024-02-14T02:25:59;15.40;71.40
46754;DHT22;32500;50.620;3.400;2024-02-14T02:28:25;15.40;71.50
46754;DHT22;32500;50.620;3.400;2024-02-14T02:30:50;15.40;71.50
46754;DHT22;32500;50.620;3.400;2024-02-14T02:33:18;15.40;71.50
46754;DHT22;32500;50.620;3.400;2024-02-14T02:35:43;15.40;71.60
46754;DHT22;32500;50.620;3.400;2024-02-14T02:38:11;15.40;71.60
46754;DHT22;32500;50.620;3.400;2024-02-14T02:40:37;15.40;71.60
46754;DHT22;32500;50.620;3.400;2024-02-14T02:43:02;15.40;71.50
46754;DHT22;32500;50.620;3.400;2024-02-14T02:45:28;15.40;71.60
46754;DHT22;32500;50.620;3.400;2024-02-14T02:47:54;15.40;71.60
46754;DHT22;32500;50.620;3.400;2024-02-14T02:50:21;15.40;71.60
46754;DHT22;32500;50.620;3.400;2024-02-14T02:52:47;15.40;71.50
46754;DHT22;32500;50.620;3.400;2024-02-14T02:55:13;15.40;71.50
46754;DHT22;32500;50.620;3.400;2024-02-14T02:57:41;15.40;71.50
46754;DHT22;32500;50.620;3.400;2024-02-14T03:00:07;15.40;71.50
46754;DHT22;32500;50.620;3.400;2024-02-14T03:02:33;15.40;71.50
46754;DHT22;32500;50.620;3.400;2024-02-14T03:04:59;15.40;72.20
46754;DHT22;32500;50.620;3.400;2024-02-14T03:07:25;15.40;71.40
46754;DHT22;32500;50.620;3.400;2024-02-14T03:09:52;15.40;71.50
46754;DHT22;32500;50.620;3.400;2024-02-14T03:12:17;15.40;71.50
46754;DHT22;32500;50.620;3.400;2024-02-14T03:14:44;15.40;72.10
46754;DHT22;32500;50.620;3.400;2024-02-14T03:17:10;15.40;71.40
46754;DHT22;32500;50.620;3.400;2024-02-14T03:19:36;15.40;71.80
46754;DHT22;32500;50.620;3.400;2024-02-14T03:22:04;15.40;71.50
46754;DHT22;32500;50.620;3.400;2024-02-14T03:24:34;15.40;71.50
46754;DHT22;32500;50.620;3.400;2024-02-14T03:27:02;15.40;71.40
46754;DHT22;32500;50.620;3.400;2024-02-14T03:29:29;15.40;71.40
46754;DHT22;32500;50.620;3.400;2024-02-14T03:31:55;15.40;71.50
46754;DHT22;32500;50.620;3.400;2024-02-14T03:34:24;15.40;71.50
46754;DHT22;32500;50.620;3.400;2024-02-14T03:36:50;15.40;71.50
46754;DHT22;32500;50.620;3.400;2024-02-14T03:39:16;15.40;71.60
46754;DHT22;32500;50.620;3.400;2024-02-14T03:41:42;15.40;71.50
46754;DHT22;32500;50.620;3.400;2024-02-14T03:44:08;15.40;71.60
46754;DHT22;32500;50.620;3.400;2024-02-14T03:46:34;15.40;71.70
46754;DHT22;32500;50.620;3.400;2024-02-14T03:49:03;15.40;71.70
46754;DHT22;32500;50.620;3.400;2024-02-14T03:51:29;15.40;71.60
46754;DHT22;32500;50.620;3.400;2024-02-14T03:53:55;15.40;71.60
46754;DHT22;32500;50.620;3.400;2024-02-14T03:56:20;15.40;71.50
46754;DHT22;32500;50.620;3.400;2024-02-14T03:58:46;15.40;71.60
46754;DHT22;32500;50.620;3.400;2024-02-14T04:01:12;15.40;71.50
46754;DHT22;32500;50.620;3.400;2024-02-14T04:03:39;15.40;71.60
46754;DHT22;32500;50.620;3.400;2024-02-14T04:06:04;15.40;72.20
46754;DHT22;32500;50.620;3.400;2024-02-14T04:08:30;15.40;71.50
46754;DHT22;32500;50.620;3.400;2024-02-14T04:10:56;15.40;72.30
46754;DHT22;32500;50.620;3.400;2024-02-14T04:13:22;15.40;71.60
46754;DHT22;32500;50.620;3.400;2024-02-14T04:15:47;15.30;71.50
46754;DHT22;32500;50.620;3.400;2024-02-14T04:18:14;15.40;71.60
46754;DHT22;32500;50.620;3.400;2024-02-14T04:20:44;15.40;71.60
46754;DHT22;32500;50.620;3.400;2024-02-14T04:23:10;15.40;71.70
46754;DHT22;32500;50.620;3.400;2024-02-14T04:25:36;15.40;71.70
46754;DHT22;32500;50.620;3.400;2024-02-14T04:28:05;15.40;71.60
46754;DHT22;32500;50.620;3.400;2024-02-14T04:30:31;15.40;71.50
46754;DHT22;32500;50.620;3.400;2024-02-14T04:32:57;15.40;71.60
46754;DHT22;32500;50.620;3.400;2024-02-14T04:35:23;15.40;71.60
46754;DHT22;32500;50.620;3.400;2024-02-14T04:37:48;15.40;71.60
46754;DHT22;32500;50.620;3.400;2024-02-14T04:40:15;15.40;71.70
46754;DHT22;32500;50.620;3.400;2024-02-14T04:42:41;15.40;71.70
46754;DHT22;32500;50.620;3.400;2024-02-14T04:45:07;15.40;71.60
46754;DHT22;32500;50.620;3.400;2024-02-14T04:47:33;15.40;71.60
46754;DHT22;32500;50.620;3.400;2024-02-14T04:49:59;15.40;71.50
46754;DHT22;32500;50.620;3.400;2024-02-14T04:52:26;15.40;71.70
46754;DHT22;32500;50.620;3.400;2024-02-14T04:54:52;15.30;71.70
46754;DHT22;32500;50.620;3.400;2024-02-14T04:57:18;15.30;71.70
46754;DHT22;32500;50.620;3.400;2024-02-14T04:59:45;15.30;71.70
46754;DHT22;32500;50.620;3.400;2024-02-14T05:02:11;15.40;71.70
46754;DHT22;32500;50.620;3.400;2024-02-14T05:04:37;15.40;71.60
46754;DHT22;32500;50.620;3.400;2024-02-14T05:07:05;15.40;71.50
46754;DHT22;32500;50.620;3.400;2024-02-14T05:09:31;15.40;71.50
46754;DHT22;32500;50.620;3.400;2024-02-14T05:11:56;15.40;71.50
46754;DHT22;32500;50.620;3.400;2024-02-14T05:14:22;15.40;71.70
46754;DHT22;32500;50.620;3.400;2024-02-14T05:16:49;15.40;71.70
46754;DHT22;32500;50.620;3.400;2024-02-14T05:19:14;15.40;71.70
46754;DHT22;32500;50.620;3.400;2024-02-14T05:21:40;15.40;71.80
46754;DHT22;32500;50.620;3.400;2024-02-14T05:24:05;15.30;71.70
46754;DHT22;32500;50.620;3.400;2024-02-14T05:26:32;15.40;71.70
46754;DHT22;32500;50.620;3.400;2024-02-14T05:28:58;15.40;71.70
46754;DHT22;32500;50.620;3.400;2024-02-14T05:31:24;15.40;71.90
46754;DHT22;32500;50.620;3.400;2024-02-14T05:33:50;15.40;72.70
46754;DHT22;32500;50.620;3.400;2024-02-14T05:36:17;15.40;72.10
46754;DHT22;32500;50.620;3.400;2024-02-14T05:38:42;15.40;72.20
46754;DHT22;32500;50.620;3.400;2024-02-14T05:41:09;15.40;72.20
46754;DHT22;32500;50.620;3.400;2024-02-14T05:43:36;15.40;72.90
46754;DHT22;32500;50.620;3.400;2024-02-14T05:46:01;15.40;72.50
46754;DHT22;32500;50.620;3.400;2024-02-14T05:48:27;15.40;72.50
46754;DHT22;32500;50.620;3.400;2024-02-14T05:50:52;15.40;72.50
46754;DHT22;32500;50.620;3.400;2024-02-14T05:53:18;15.40;72.50
46754;DHT22;32500;50.620;3.400;2024-02-14T05:55:44;15.40;72.60
46754;DHT22;32500;50.620;3.400;2024-02-14T05:58:09;15.40;72.70
46754;DHT22;32500;50.620;3.400;2024-02-14T06:00:35;15.40;72.70
46754;DHT22;32500;50.620;3.400;2024-02-14T06:03:01;15.40;72.80
46754;DHT22;32500;50.620;3.400;2024-02-14T06:05:27;15.40;72.90
46754;DHT22;32500;50.620;3.400;2024-02-14T06:07:53;15.40;73.20
46754;DHT22;32500;50.620;3.400;2024-02-14T06:10:19;15.40;73.30
46754;DHT22;32500;50.620;3.400;2024-02-14T06:12:44;15.40;73.50
46754;DHT22;32500;50.620;3.400;2024-02-14T06:15:11;15.40;73.50
46754;DHT22;32500;50.620;3.400;2024-02-14T06:17:37;15.40;73.80
46754;DHT22;32500;50.620;3.400;2024-02-14T06:20:03;15.40;73.80
46754;DHT22;32500;50.620;3.400;2024-02-14T06:22:31;15.40;74.10
46754;DHT22;32500;50.620;3.400;2024-02-14T06:24:58;15.40;74.20
46754;DHT22;32500;50.620;3.400;2024-02-14T06:27:24;15.40;74.20
46754;DHT22;32500;50.620;3.400;2024-02-14T06:29:49;15.40;74.70
46754;DHT22;32500;50.620;3.400;2024-02-14T06:32:15;15.40;74.80
46754;DHT22;32500;50.620;3.400;2024-02-14T06:34:40;15.40;74.70
46754;DHT22;32500;50.620;3.400;2024-02-14T06:37:06;15.40;74.80
46754;DHT22;32500;50.620;3.400;2024-02-14T06:39:32;15.40;74.90
46754;DHT22;32500;50.620;3.400;2024-02-14T06:41:57;15.40;75.00
46754;DHT22;32500;50.620;3.400;2024-02-14T06:44:24;15.40;75.00
46754;DHT22;32500;50.620;3.400;2024-02-14T06:46:50;15.40;75.50
46754;DHT22;32500;50.620;3.400;2024-02-14T06:49:16;15.40;75.40
46754;DHT22;32500;50.620;3.400;2024-02-14T06:51:42;15.40;75.20
46754;DHT22;32500;50.620;3.400;2024-02-14T06:54:08;15.40;75.20
46754;DHT22;32500;50.620;3.400;2024-02-14T06:56:35;15.40;75.10
46754;DHT22;32500;50.620;3.400;2024-02-14T06:59:01;15.40;75.10
46754;DHT22;32500;50.620;3.400;2024-02-14T07:01:28;15.40;75.00
46754;DHT22;32500;50.620;3.400;2024-02-14T07:03:54;15.40;74.90
46754;DHT22;32500;50.620;3.400;2024-02-14T07:06:19;15.40;74.80
46754;DHT22;32500;50.620;3.400;2024-02-14T07:08:45;15.40;74.70
46754;DHT22;32500;50.620;3.400;2024-02-14T07:11:12;15.40;74.70
46754;DHT22;32500;50.620;3.400;2024-02-14T07:13:38;15.40;74.60
46754;DHT22;32500;50.620;3.400;2024-02-14T07:16:04;15.40;74.50
46754;DHT22;32500;50.620;3.400;2024-02-14T07:18:30;15.40;74.40
46754;DHT22;32500;50.620;3.400;2024-02-14T07:20:55;15.40;74.40
46754;DHT22;32500;50.620;3.400;2024-02-14T07:23:21;15.40;74.30
46754;DHT22;32500;50.620;3.400;2024-02-14T07:25:47;15.40;74.30
46754;DHT22;32500;50.620;3.400;2024-02-14T07:28:13;15.40;74.20
46754;DHT22;32500;50.620;3.400;2024-02-14T07:30:38;15.40;74.10
46754;DHT22;32500;50.620;3.400;2024-02-14T07:33:04;15.40;74.10
46754;DHT22;32500;50.620;3.400;2024-02-14T07:35:30;15.40;74.00
46754;DHT22;32500;50.620;3.400;2024-02-14T07:37:57;15.40;74.00
46754;DHT22;32500;50.620;3.400;2024-02-14T07:40:23;15.50;74.60
46754;DHT22;32500;50.620;3.400;2024-02-14T07:42:49;15.60;74.60
46754;DHT22;32500;50.620;3.400;2024-02-14T07:45:14;15.60;74.50
46754;DHT22;32500;50.620;3.400;2024-02-14T07:47:40;15.70;74.20
46754;DHT22;32500;50.620;3.400;2024-02-14T07:50:07;15.70;73.70
46754;DHT22;32500;50.620;3.400;2024-02-14T07:52:33;15.70;73.50
46754;DHT22;32500;50.620;3.400;2024-02-14T07:54:58;15.70;73.50
46754;DHT22;32500;50.620;3.400;2024-02-14T07:57:24;15.70;73.60
46754;DHT22;32500;50.620;3.400;2024-02-14T07:59:53;15.80;73.70
46754;DHT22;32500;50.620;3.400;2024-02-14T08:02:21;15.80;74.00
46754;DHT22;32500;50.620;3.400;2024-02-14T08:04:47;15.70;74.00
46754;DHT22;32500;50.620;3.400;2024-02-14T08:07:13;15.70;74.30
46754;DHT22;32500;50.620;3.400;2024-02-14T08:09:38;15.70;74.40
46754;DHT22;32500;50.620;3.400;2024-02-14T08:12:05;15.70;74.60
46754;DHT22;32500;50.620;3.400;2024-02-14T08:14:31;15.80;74.50
46754;DHT22;32500;50.620;3.400;2024-02-14T08:16:57;15.80;74.50
46754;DHT22;32500;50.620;3.400;2024-02-14T08:19:23;15.90;74.40
46754;DHT22;32500;50.620;3.400;2024-02-14T08:21:49;15.90;74.00
46754;DHT22;32500;50.620;3.400;2024-02-14T08:24:15;16.00;73.70
46754;DHT22;32500;50.620;3.400;2024-02-14T08:26:40;16.00;74.00
46754;DHT22;32500;50.620;3.400;2024-02-14T08:29:06;16.10;73.60
46754;DHT22;32500;50.620;3.400;2024-02-14T08:31:32;16.10;73.60
46754;DHT22;32500;50.620;3.400;2024-02-14T08:33:58;16.10;73.30
46754;DHT22;32500;50.620;3.400;2024-02-14T08:36:24;16.10;73.10
46754;DHT22;32500;50.620;3.400;2024-02-14T08:38:50;16.10;73.00
46754;DHT22;32500;50.620;3.400;2024-02-14T08:41:15;16.10;72.90
46754;DHT22;32500;50.620;3.400;2024-02-14T08:43:41;16.10;73.10
46754;DHT22;32500;50.620;3.400;2024-02-14T08:46:12;16.10;72.90
46754;DHT22;32500;50.620;3.400;2024-02-14T08:48:38;16.10;73.00
46754;DHT22;32500;50.620;3.400;2024-02-14T08:51:13;16.10;73.10
46754;DHT22;32500;50.620;3.400;2024-02-14T08:53:39;16.10;73.00
46754;DHT22;32500;50.620;3.400;2024-02-14T08:56:05;16.20;73.20
46754;DHT22;32500;50.620;3.400;2024-02-14T08:58:30;16.10;72.50
46754;DHT22;32500;50.620;3.400;2024-02-14T09:00:56;16.10;72.50
46754;DHT22;32500;50.620;3.400;2024-02-14T09:03:22;16.10;72.40
46754;DHT22;32500;50.620;3.400;2024-02-14T09:05:48;16.10;72.50
46754;DHT22;32500;50.620;3.400;2024-02-14T09:08:14;16.10;72.40
46754;DHT22;32500;50.620;3.400;2024-02-14T09:10:40;16.10;72.40
46754;DHT22;32500;50.620;3.400;2024-02-14T09:13:05;16.20;72.40
46754;DHT22;32500;50.620;3.400;2024-02-14T09:15:33;16.20;72.60
46754;DHT22;32500;50.620;3.400;2024-02-14T09:17:59;16.10;72.40
46754;DHT22;32500;50.620;3.400;2024-02-14T09:20:26;16.10;72.40
46754;DHT22;32500;50.620;3.400;2024-02-14T09:22:51;16.10;72.20
46754;DHT22;32500;50.620;3.400;2024-02-14T09:25:18;16.20;72.30
46754;DHT22;32500;50.620;3.400;2024-02-14T09:27:44;16.10;72.40
46754;DHT22;32500;50.620;3.400;2024-02-14T09:30:12;16.20;72.50
46754;DHT22;32500;50.620;3.400;2024-02-14T09:32:38;16.10;72.20
46754;DHT22;32500;50.620;3.400;2024-02-14T09:35:04;16.20;72.50
46754;DHT22;32500;50.620;3.400;2024-02-14T09:37:32;16.20;72.40
46754;DHT22;32500;50.620;3.400;2024-02-14T09:39:58;16.20;72.50
46754;DHT22;32500;50.620;3.400;2024-02-14T09:42:38;16.20;72.40
46754;DHT22;32500;50.620;3.400;2024-02-14T09:45:06;16.20;72.30
46754;DHT22;32500;50.620;3.400;2024-02-14T09:47:33;16.30;72.40
46754;DHT22;32500;50.620;3.400;2024-02-14T09:50:00;16.30;72.30
46754;DHT22;32500;50.620;3.400;2024-02-14T09:52:26;16.30;72.20
46754;DHT22;32500;50.620;3.400;2024-02-14T09:54:53;16.40;72.50
46754;DHT22;32500;50.620;3.400;2024-02-14T09:57:19;16.30;72.30
46754;DHT22;32500;50.620;3.400;2024-02-14T09:59:46;16.30;72.30
46754;DHT22;32500;50.620;3.400;2024-02-14T10:02:13;16.30;72.40
46754;DHT22;32500;50.620;3.400;2024-02-14T10:04:39;16.30;72.40
46754;DHT22;32500;50.620;3.400;2024-02-14T10:07:05;16.20;72.30
46754;DHT22;32500;50.620;3.400;2024-02-14T10:09:39;16.20;72.50
46754;DHT22;32500;50.620;3.400;2024-02-14T10:12:05;16.20;72.40
46754;DHT22;32500;50.620;3.400;2024-02-14T10:14:31;16.30;72.50
46754;DHT22;32500;50.620;3.400;2024-02-14T10:16:56;16.20;72.40
46754;DHT22;32500;50.620;3.400;2024-02-14T10:19:22;16.30;72.50
46754;DHT22;32500;50.620;3.400;2024-02-14T10:21:56;16.20;72.50
46754;DHT22;32500;50.620;3.400;2024-02-14T10:24:27;16.20;72.40
46754;DHT22;32500;50.620;3.400;2024-02-14T10:26:53;16.30;72.40
46754;DHT22;32500;50.620;3.400;2024-02-14T10:29:20;16.20;72.40
46754;DHT22;32500;50.620;3.400;2024-02-14T10:31:49;16.20;72.30
46754;DHT22;32500;50.620;3.400;2024-02-14T10:34:14;16.30;72.30
46754;DHT22;32500;50.620;3.400;2024-02-14T10:36:43;16.30;72.30
46754;DHT22;32500;50.620;3.400;2024-02-14T10:39:10;16.30;72.20
46754;DHT22;32500;50.620;3.400;2024-02-14T10:41:36;16.30;72.20
46754;DHT22;32500;50.620;3.400;2024-02-14T10:44:03;16.30;72.40
46754;DHT22;32500;50.620;3.400;2024-02-14T10:46:32;16.40;72.50
46754;DHT22;32500;50.620;3.400;2024-02-14T10:49:03;16.40;72.70
46754;DHT22;32500;50.620;3.400;2024-02-14T10:51:31;16.40;72.00
46754;DHT22;32500;50.620;3.400;2024-02-14T10:53:58;16.40;72.00
46754;DHT22;32500;50.620;3.400;2024-02-14T10:56:28;16.50;71.70
46754;DHT22;32500;50.620;3.400;2024-02-14T10:58:56;16.50;72.10
46754;DHT22;32500;50.620;3.400;2024-02-14T11:01:26;16.50;72.30
46754;DHT22;32500;50.620;3.400;2024-02-14T11:03:53;16.50;72.00
46754;DHT22;32500;50.620;3.400;2024-02-14T11:06:21;16.50;71.80
46754;DHT22;32500;50.620;3.400;2024-02-14T11:09:16;16.50;71.50
46754;DHT22;32500;50.620;3.400;2024-02-14T11:11:42;16.50;71.60
46754;DHT22;32500;50.620;3.400;2024-02-14T11:14:16;16.50;71.50
46754;DHT22;32500;50.620;3.400;2024-02-14T11:16:45;16.50;71.40
46754;DHT22;32500;50.620;3.400;2024-02-14T11:19:13;16.50;71.50
46754;DHT22;32500;50.620;3.400;2024-02-14T11:21:43;16.60;71.50
46754;DHT22;32500;50.620;3.400;2024-02-14T11:24:14;16.60;71.40
46754;DHT22;32500;50.620;3.400;2024-02-14T11:29:15;16.50;72.60
46754;DHT22;32500;50.620;3.400;2024-02-14T11:31:47;16.60;71.70
46754;DHT22;32500;50.620;3.400;2024-02-14T11:34:15;16.60;71.40
46754;DHT22;32500;50.620;3.400;2024-02-14T11:36:42;16.60;71.90
46754;DHT22;32500;50.620;3.400;2024-02-14T11:39:08;16.60;72.30
46754;DHT22;32500;50.620;3.400;2024-02-14T11:41:34;16.60;71.60
46754;DHT22;32500;50.620;3.400;2024-02-14T11:44:04;16.60;71.50
46754;DHT22;32500;50.620;3.400;2024-02-14T11:46:34;16.60;71.40
46754;DHT22;32500;50.620;3.400;2024-02-14T11:49:01;16.60;71.50
46754;DHT22;32500;50.620;3.400;2024-02-14T11:51:32;16.60;71.40
46754;DHT22;32500;50.620;3.400;2024-02-14T11:53:59;16.60;71.40
46754;DHT22;32500;50.620;3.400;2024-02-14T11:56:31;16.50;71.40
46754;DHT22;32500;50.620;3.400;2024-02-14T11:59:00;16.50;71.40
46754;DHT22;32500;50.620;3.400;2024-02-14T12:01:30;16.60;71.60
46754;DHT22;32500;50.620;3.400;2024-02-14T12:03:59;16.60;71.60
46754;DHT22;32500;50.620;3.400;2024-02-14T12:06:29;16.60;71.50
46754;DHT22;32500;50.620;3.400;2024-02-14T12:09:05;16.60;71.50
46754;DHT22;32500;50.620;3.400;2024-02-14T12:11:36;16.60;71.50
46754;DHT22;32500;50.620;3.400;2024-02-14T12:14:06;16.70;71.40
46754;DHT22;32500;50.620;3.400;2024-02-14T12:16:34;16.70;71.40
46754;DHT22;32500;50.620;3.400;2024-02-14T12:19:06;16.60;71.40
46754;DHT22;32500;50.620;3.400;2024-02-14T12:21:37;16.60;71.20
46754;DHT22;32500;50.620;3.400;2024-02-14T12:24:13;16.60;71.20
46754;DHT22;32500;50.620;3.400;2024-02-14T12:26:40;16.70;71.30
46754;DHT22;32500;50.620;3.400;2024-02-14T12:29:07;16.70;71.20
46754;DHT22;32500;50.620;3.400;2024-02-14T12:31:34;16.70;71.20
46754;DHT22;32500;50.620;3.400;2024-02-14T12:34:02;16.60;71.20
46754;DHT22;32500;50.620;3.400;2024-02-14T12:36:31;16.60;71.20
46754;DHT22;32500;50.620;3.400;2024-02-14T12:38:58;16.60;72.10
46754;DHT22;32500;50.620;3.400;2024-02-14T12:41:24;16.70;71.50
46754;DHT22;32500;50.620;3.400;2024-02-14T12:43:52;16.70;71.40
46754;DHT22;32500;50.620;3.400;2024-02-14T12:46:19;16.70;71.40
46754;DHT22;32500;50.620;3.400;2024-02-14T12:48:45;16.70;71.40
46754;DHT22;32500;50.620;3.400;2024-02-14T12:51:11;16.80;71.40
46754;DHT22;32500;50.620;3.400;2024-02-14T12:53:42;16.80;71.70
46754;DHT22;32500;50.620;3.400;2024-02-14T12:56:08;16.80;71.50
46754;DHT22;32500;50.620;3.400;2024-02-14T12:58:33;16.80;71.20
46754;DHT22;32500;50.620;3.400;2024-02-14T13:01:00;16.80;71.20
46754;DHT22;32500;50.620;3.400;2024-02-14T13:03:26;16.80;71.60
46754;DHT22;32500;50.620;3.400;2024-02-14T13:05:53;16.80;72.00
46754;DHT22;32500;50.620;3.400;2024-02-14T13:08:20;16.80;71.40
46754;DHT22;32500;50.620;3.400;2024-02-14T13:10:45;16.80;71.80
46754;DHT22;32500;50.620;3.400;2024-02-14T13:13:11;16.80;71.60
46754;DHT22;32500;50.620;3.400;2024-02-14T13:15:37;16.80;71.50
46754;DHT22;32500;50.620;3.400;2024-02-14T13:18:03;16.80;71.50
46754;DHT22;32500;50.620;3.400;2024-02-14T13:20:29;16.80;71.60
46754;DHT22;32500;50.620;3.400;2024-02-14T13:22:55;16.80;71.20
46754;DHT22;32500;50.620;3.400;2024-02-14T13:25:21;16.80;71.30
46754;DHT22;32500;50.620;3.400;2024-02-14T13:27:47;16.90;72.10
46754;DHT22;32500;50.620;3.400;2024-02-14T13:30:13;17.00;72.50
46754;DHT22;32500;50.620;3.400;2024-02-14T13:32:38;17.00;72.50
46754;DHT22;32500;50.620;3.400;2024-02-14T13:35:06;17.10;72.60
46754;DHT22;32500;50.620;3.400;2024-02-14T13:37:32;17.20;72.70
46754;DHT22;32500;50.620;3.400;2024-02-14T13:39:59;17.20;72.80
46754;DHT22;32500;50.620;3.400;2024-02-14T13:42:30;17.20;72.80
46754;DHT22;32500;50.620;3.400;2024-02-14T13:44:57;17.30;72.90
46754;DHT22;32500;50.620;3.400;2024-02-14T13:47:23;17.30;73.10
46754;DHT22;32500;50.620;3.400;2024-02-14T13:49:51;17.40;72.30
46754;DHT22;32500;50.620;3.400;2024-02-14T13:52:17;17.40;72.40
46754;DHT22;32500;50.620;3.400;2024-02-14T13:54:44;17.40;71.90
46754;DHT22;32500;50.620;3.400;2024-02-14T13:57:09;17.50;71.80
46754;DHT22;32500;50.620;3.400;2024-02-14T13:59:37;17.50;71.90
46754;DHT22;32500;50.620;3.400;2024-02-14T14:02:03;17.50;72.10
46754;DHT22;32500;50.620;3.400;2024-02-14T14:06:59;17.60;72.00
46754;DHT22;32500;50.620;3.400;2024-02-14T14:09:29;17.60;72.80
46754;DHT22;32500;50.620;3.400;2024-02-14T14:11:59;17.70;72.80
46754;DHT22;32500;50.620;3.400;2024-02-14T14:14:25;17.70;72.20
46754;DHT22;32500;50.620;3.400;2024-02-14T14:16:53;17.70;71.90
46754;DHT22;32500;50.620;3.400;2024-02-14T14:19:20;17.80;72.40
46754;DHT22;32500;50.620;3.400;2024-02-14T14:21:46;17.80;72.50
46754;DHT22;32500;50.620;3.400;2024-02-14T14:24:12;17.80;72.50
46754;DHT22;32500;50.620;3.400;2024-02-14T14:26:38;17.80;72.20
46754;DHT22;32500;50.620;3.400;2024-02-14T14:29:04;17.80;72.00
46754;DHT22;32500;50.620;3.400;2024-02-14T14:31:31;17.80;71.30
46754;DHT22;32500;50.620;3.400;2024-02-14T14:34:01;17.80;71.60
46754;DHT22;32500;50.620;3.400;2024-02-14T14:36:27;17.80;71.60
46754;DHT22;32500;50.620;3.400;2024-02-14T14:38:53;17.90;71.50
46754;DHT22;32500;50.620;3.400;2024-02-14T14:41:21;18.00;71.60
46754;DHT22;32500;50.620;3.400;2024-02-14T14:43:47;18.00;71.60
46754;DHT22;32500;50.620;3.400;2024-02-14T14:46:15;18.10;71.50
46754;DHT22;32500;50.620;3.400;2024-02-14T14:48:40;18.10;71.30
46754;DHT22;32500;50.620;3.400;2024-02-14T14:51:06;18.20;71.30
46754;DHT22;32500;50.620;3.400;2024-02-14T14:53:33;18.30;71.00
46754;DHT22;32500;50.620;3.400;2024-02-14T14:56:00;18.30;71.00
46754;DHT22;32500;50.620;3.400;2024-02-14T14:58:26;18.30;71.00
46754;DHT22;32500;50.620;3.400;2024-02-14T15:00:53;18.40;70.90
46754;DHT22;32500;50.620;3.400;2024-02-14T15:03:22;18.40;70.90
46754;DHT22;32500;50.620;3.400;2024-02-14T15:05:48;18.40;70.90
46754;DHT22;32500;50.620;3.400;2024-02-14T15:08:14;18.40;70.80
46754;DHT22;32500;50.620;3.400;2024-02-14T15:10:40;18.40;70.90
46754;DHT22;32500;50.620;3.400;2024-02-14T15:13:09;18.50;70.90
46754;DHT22;32500;50.620;3.400;2024-02-14T15:15:35;18.50;71.00
46754;DHT22;32500;50.620;3.400;2024-02-14T15:18:02;18.40;71.10
46754;DHT22;32500;50.620;3.400;2024-02-14T15:20:28;18.50;71.40
46754;DHT22;32500;50.620;3.400;2024-02-14T15:22:55;18.50;70.80
46754;DHT22;32500;50.620;3.400;2024-02-14T15:25:21;18.50;71.10
46754;DHT22;32500;50.620;3.400;2024-02-14T15:27:47;18.50;71.40
46754;DHT22;32500;50.620;3.400;2024-02-14T15:30:25;18.40;71.60
46754;DHT22;32500;50.620;3.400;2024-02-14T15:33:12;18.40;71.70